• Join FlightAware (Why Join?)
  • Login
  • US Flag 
 
03:58PM EST


 

Airport Tracker/Info


-or-


 

Live Flight TrackerFlight Track Log ✈ UPS1337 ✈ 24-Mar-2014 ✈ KPIE - KSDF

Flight Track Log - Related Links

Times and Time Zones

All times are in EDT time to prevent confusion due to time zone crossing. See the UPS1337 flight status page for this flight to view local times or setup timezone preferences in your user account.

Time Position Orientation Groundspeed Altitude Reporting Facility
EDT Latitude Longitude Course Direction KTS MPH feet Rate Location/Type
09:54PM 27.9000 -82.6833 330° Northwest 162 186 800  Level Tampa TRACON
09:55PM 27.8833 -82.6833 180° South 161 185 2,000 2,400 Climbing Tampa TRACON
09:56PM 27.8333 -82.7000 196° South 239 275 4,200 3,180 Climbing Tampa TRACON
09:57PM 27.8833 -82.7500 319° Northwest 271 312 8,700 3,360 Climbing Tampa TRACON
09:58PM 27.9667 -82.7667 350° North 302 348 11,600 1,200 Climbing Tampa TRACON
09:59PM 28.1206 -82.7892 353° North 358 412 12,000 840 Climbing Jacksonville Center
10:00PM 28.4632 -83.0252 330° Northwest  Level FlightAware Approximate
10:00PM 28.2231 -82.8078 351° North 363 418 13,800  Level Jacksonville Center
10:01PM 28.3253 -82.8219 353° North 368 423 16,800 2,520 Climbing Jacksonville Center
10:02PM 28.4336 -82.8336 355° North 373 429 18,900 2,220 Climbing Jacksonville Center
10:03PM 28.5486 -82.8500 353° North 390 449 21,300 1,800 Climbing Jacksonville Center
10:04PM 28.6633 -82.8856 345° North 404 465 22,500 1,380 Climbing Jacksonville Center
10:05PM 28.7678 -82.9233 342° North 420 483 24,100 1,560 Climbing Jacksonville Center
10:06PM 28.8928 -82.9683 343° North 445 512 25,700 1,620 Climbing Jacksonville Center
10:07PM 29.0181 -83.0161 342° North 459 528 27,400 1,680 Climbing Jacksonville Center
10:08PM 29.1433 -83.0636 342° North 464 534 29,100 1,860 Climbing Jacksonville Center
10:09PM 29.2706 -83.1092 343° North 469 540 31,200 1,440 Climbing Jacksonville Center
10:10PM 29.3914 -83.1547 342° North 464 534 32,000 360 Climbing Jacksonville Center
10:11PM 29.5311 -83.2100 341° North 472 543 32,000  Level Jacksonville Center
10:12PM 29.6522 -83.2533 343° North 459 528 32,000  Level Jacksonville Center
10:19PM 30.4164 -83.5365 342° North 462 532 32,000  Level FlightAware ADS-B (KTLH)
10:19PM 30.4986 -83.5674 342° North 460 529 32,000  Level FlightAware ADS-B (KTLH)
10:20PM 30.5980 -83.6050 342° North 455 524 32,000  Level FlightAware ADS-B (KTLH)
10:21PM 30.6584 -83.6279 342° North 455 524 32,000  Level FlightAware ADS-B (KTLH)
10:21PM 30.7005 -83.6439 342° North 450 518 32,000  Level FlightAware ADS-B (KTLH)
10:22PM 30.7946 -83.6796 342° North 446 513 32,000  Level FlightAware ADS-B (KTLH)
10:22PM 30.8555 -83.7029 342° North 448 516 32,000  Level FlightAware ADS-B (KTLH)
10:23PM 30.9147 -83.7256 342° North 450 518 32,000  Level FlightAware ADS-B (KTLH)
10:23PM 30.9748 -83.7483 342° North 450 518 32,000  Level FlightAware ADS-B (KTLH)
10:24PM 31.0909 -83.7926 342° North 448 516 32,000  Level FlightAware ADS-B (KTLH)
10:25PM 31.1563 -83.8177 342° North 449 517 32,000  Level FlightAware ADS-B (KTLH)
10:26PM 31.2607 -83.8578 342° North 450 518 32,000  Level FlightAware ADS-B (KTLH)
10:27PM 31.3792 -83.9075 342° North 449 517 32,000  Level Atlanta Center
10:28PM 31.4983 -83.9511 343° North 444 511 32,000  Level Atlanta Center
10:29PM 31.6172 -83.9853 346° North 439 505 32,000  Level Atlanta Center
10:30PM 31.7425 -84.0119 350° North 439 505 32,000  Level Atlanta Center
10:31PM 31.8656 -84.0364 350° North 444 511 32,000  Level Atlanta Center
10:32PM 31.9886 -84.0633 349° North 450 518 32,000  Level Atlanta Center
10:33PM 32.1139 -84.0928 349° North 450 518 32,000  Level Atlanta Center
10:34PM 32.2392 -84.1200 350° North 450 518 32,000  Level Atlanta Center
10:35PM 32.3581 -84.1469 349° North 450 518 32,000  Level Atlanta Center
10:36PM 32.4811 -84.1742 349° North 450 518 32,000  Level Atlanta Center
10:37PM 32.6064 -84.2042 349° North 450 518 32,000  Level Atlanta Center
10:38PM 32.7317 -84.2339 349° North 450 518 32,000  Level Atlanta Center
10:39PM 32.8547 -84.2664 347° North 450 518 32,000  Level Atlanta Center
10:40PM 32.9778 -84.2914 350° North 450 518 32,000  Level Atlanta Center
10:41PM 33.1050 -84.3217 349° North 450 518 32,000  Level Atlanta Center
10:42PM 33.2178 -84.3442 351° North 450 518 32,000  Level Atlanta Center
10:43PM 33.3389 -84.3719 349° North 450 518 32,000  Level Atlanta Center
10:48PM 34.0816 -84.5441 348° North 440 506 32,000  Level FlightAware ADS-B (KDZJ)
10:49PM 34.1634 -84.5641 348° North 440 506 32,000  Level FlightAware ADS-B (KDZJ)
10:49PM 34.2437 -84.5837 349° North 447 514 32,000  Level FlightAware ADS-B (KDZJ)
10:50PM 34.3259 -84.6037 349° North 447 514 32,000  Level FlightAware ADS-B (KDZJ)
10:51PM 34.4064 -84.6233 349° North 446 513 32,000  Level FlightAware ADS-B (KDZJ)
10:51PM 34.4885 -84.6433 349° North 446 513 32,000  Level FlightAware ADS-B (KDZJ)
10:52PM 34.5675 -84.6628 349° North 447 514 32,000  Level FlightAware ADS-B (KDZJ)
10:53PM 34.6507 -84.6833 348° North 447 514 32,000  Level FlightAware ADS-B (KDZJ)
10:53PM 34.7296 -84.7030 348° North 440 506 32,000  Level FlightAware ADS-B (KDZJ)
10:54PM 34.8109 -84.7231 348° North 441 507 32,000  Level FlightAware ADS-B (KDZJ)
10:55PM 34.8937 -84.7439 348° North 441 507 32,000  Level FlightAware ADS-B (KDZJ)
10:55PM 34.9747 -84.7642 348° North 443 510 32,000  Level FlightAware ADS-B (KDZJ)
10:56PM 35.0562 -84.7842 348° North 444 511 32,000  Level FlightAware ADS-B (KDZJ)
10:56PM 35.1256 -84.8015 348° North 445 512 32,000  Level FlightAware ADS-B (KDZJ)
10:58PM 35.1822 -84.8156 348° North 442 509 32,000  Level FlightAware ADS-B (KMDQ)
10:59PM 35.3136 -84.8490 348° North 452 520 32,000  Level FlightAware ADS-B (KMDQ)
10:59PM 35.3975 -84.8698 348° North 454 522 32,000 -540 Level FlightAware ADS-B (KMDQ)
11:00PM 35.4982 -84.8952 349° North 452 520 31,200 -480 Descending FlightAware ADS-B (KMDQ)
11:04PM 35.9195 -85.0105 350° North 455 524 30,000 -300 Descending FlightAware ADS-B (KMDQ)
11:05PM 36.0390 -85.0374 349° North 450 518 30,000 -360 Level FlightAware ADS-B (KMDQ)
11:06PM 36.2038 -85.0756 349° North 406 467 29,200 -1,140 Descending FlightAware ADS-B (KMDQ)
11:07PM 36.3120 -85.0965 North 422 486 27,900 -1,500 Descending FlightAware ADS-B (KMDQ)
11:14PM 37.0428 -85.0185 North 361 415 18,100 -1,500 Descending FlightAware ADS-B (KBRY)
11:15PM 37.1339 -85.0088 North 353 406 16,900 -1,260 Descending FlightAware ADS-B (KBRY)
11:18PM 37.4231 -84.9777 North 335 386 13,200 -1,020 Descending FlightAware ADS-B (KBRY)
11:22PM 37.7319 -85.0576 312° West 272 313 9,800 -840 Descending FlightAware ADS-B (KBRY)
11:23PM 37.7789 -85.1245 311° West 258 297 9,100 -900 Descending FlightAware ADS-B (KBRY)
11:24PM 37.8296 -85.1965 312° West 263 303 8,100 -1,020 Descending FlightAware ADS-B (KBRY)
11:25PM 37.8660 -85.2706 290° West 258 297 7,100 -1,200 Descending FlightAware ADS-B (KBRY)
11:26PM 37.8893 -85.3543 290° West 255 293 5,800 -1,440 Descending FlightAware ADS-B (KBRY)
11:27PM 37.9141 -85.4429 289° West 260 299 4,200 -1,380 Descending FlightAware ADS-B (KBRY)
11:28PM 37.9371 -85.5295 289° West 260 299 3,100 -660 Descending FlightAware ADS-B (KBRY)
11:29PM 37.9709 -85.5933 314° West 202 232 2,900 -120 Descending FlightAware ADS-B (KBRY)
11:30PM 38.0084 -85.6443 313° West 184 212 2,900 -60 Level FlightAware ADS-B (KBRY)
11:31PM 38.0467 -85.6833 342° North 164 189 2,800 -480 Descending FlightAware ADS-B (KBRY)
11:32PM 38.0849 -85.6963 345° North 121 139 2,000 -780 Descending FlightAware ADS-B (KBRY)
11:33PM 38.1125 -85.7058 345° North 121 139 1,400 -600 Descending FlightAware ADS-B (KBRY)
11:34PM 38.1500 -85.7167 345° North 126 145 1,000 -420 Descending Louisville TRACON
11:36PM 38.1741 -85.7365 208° Southwest  Level Estimated